Terminal Aerodrome Forecast
Issued by NWS

Home | Current Version | Previous Version | Graphics & Text | Print | Product List | Glossary On
Versions: 1 2 3 4 5 6 7 8 9 10 11 12 13 14 15 16 17 18 19
469
FTUS43 KABR 260539
TAFATY
TAF
KATY 260539Z 2606/2706 36015G21KT P6SM VCSH OVC006
     FM261300 35017G24KT P6SM OVC015
     FM270300 35011KT P6SM OVC007=

USA.gov is the U.S. government's official web portal to all federal, state and local government web resources and services.